Latest Weather Observations for Miles

IDQ60801

Issued at 9:12 pm EST Saturday 23 February 2019 (issued every 10 minutes, with the page automatically refreshed every 10 minutes)

About weather observations | Map of weather stations | Latest weather observations for QLD | Other Formats
Station Details ID: 042112 Name: MILES CONSTANCE STREET Lat: -26.66 Lon: 150.18 Height: 304.8 m
Data from the previous 72 hours. | See also: Recent months at Miles
Date/Time
EST
Temp
°C
App
Temp
°C
Dew
Point
°C
Rel
Hum
%
Delta-T
°C
Wind Press
QNH
hPa
Press
MSL
hPa
Rain since
9am
mm
Dir  Spd
km/h
Gust
km/h
Spd
kts
Gust
kts
23/09:00pm 26.3 25.4 9.2 34 9.5 S 4 7 2 4 1016.1 1014.3 0.0
23/08:30pm 25.7 25.4 10.2 37 8.7 S 2 6 1 3 1015.8 - 0.0
23/08:00pm 28.0 26.6 8.7 29 10.7 ESE 6 7 3 4 1015.4 - 0.0
23/07:30pm 29.3 28.5 9.8 29 11.1 ENE 4 7 2 4 1015.0 - 0.0
23/07:00pm 30.3 28.0 5.9 21 13.1 SE 7 15 4 8 1014.4 - 0.0
23/06:30pm 31.1 28.6 6.5 21 13.4 SE 9 13 5 7 1013.8 - 0.0
23/06:00pm 31.8 28.6 5.3 19 14.2 S 11 19 6 10 1013.6 1011.8 0.0
23/05:30pm 32.1 27.9 5.6 19 14.3 S 17 24 9 13 1013.3 - 0.0
23/05:00pm 32.3 29.1 5.3 18 14.5 SE 11 19 6 10 1013.3 - 0.0
23/04:30pm 32.8 29.5 4.7 17 15.0 SSW 11 22 6 12 1013.2 - 0.0
23/04:00pm 32.7 29.7 6.1 19 14.5 SE 11 19 6 10 1013.4 - 0.0
23/03:30pm 32.2 29.1 7.3 21 13.8 ESE 13 20 7 11 1013.4 - 0.0
23/03:00pm 31.8 29.9 7.5 22 13.5 SE 7 13 4 7 1013.4 1011.6 0.0
23/02:30pm 31.9 28.3 6.7 20 13.8 ESE 15 30 8 16 1013.7 - 0.0
23/02:00pm 31.3 28.3 7.7 23 13.1 SE 13 20 7 11 1014.1 - 0.0
23/01:30pm 31.6 28.7 8.2 23 13.1 SSE 13 24 7 13 1014.4 - 0.0
23/01:00pm 30.6 27.2 7.6 23 12.7 ESE 15 26 8 14 1014.8 - 0.0
23/12:30pm 30.4 27.3 7.3 23 12.7 E 13 22 7 12 1014.9 - 0.0
23/12:00pm 29.6 26.8 8.4 26 11.8 S 13 22 7 12 1015.2 1013.4 0.0
23/11:30am 28.7 26.0 9.1 29 11.0 SSE 13 22 7 12 1015.6 - 0.0
23/11:00am 27.7 24.8 9.8 32 10.1 SE 15 22 8 12 1016.0 - 0.0
23/10:30am 27.5 25.4 9.7 32 10.0 ESE 11 20 6 11 1016.3 - 0.0
23/10:00am 26.6 24.3 10.4 36 9.2 S 13 22 7 12 1016.4 - 0.0
23/09:30am 25.6 22.8 9.9 37 8.8 SSE 15 28 8 15 1016.5 - 0.0
23/09:00am 24.9 22.0 9.8 38 8.4 SE 15 24 8 13 1016.7 1014.9 0.0
23/08:30am 23.6 19.9 9.4 40 7.8 SE 19 28 10 15 1016.7 - 0.0
23/08:00am 23.3 20.0 9.4 41 7.6 SE 17 24 9 13 1016.7 - 0.0
23/07:30am 22.6 20.5 9.7 44 7.1 SSE 11 19 6 10 1016.4 - 0.0
23/07:00am 20.5 19.3 10.3 52 5.6 S 7 9 4 5 1016.1 - 0.0
23/06:30am 17.1 17.4 10.9 67 3.4 CALM 0 0 0 0 1016.0 - 0.0
23/06:00am 16.2 16.4 10.6 69 3.0 CALM 0 0 0 0 1015.7 1013.9 0.0
23/05:30am 16.6 16.8 10.5 67 3.3 CALM 0 0 0 0 1015.3 - 0.0
23/05:00am 17.4 17.7 11.0 66 3.5 CALM 0 0 0 0 1015.1 - 0.0
23/04:30am 18.2 18.6 11.1 63 3.9 CALM 0 0 0 0 1014.8 - 0.0
23/04:00am 19.5 19.0 10.8 57 4.8 SE 4 7 2 4 1014.3 - 0.0
23/03:30am 20.8 19.7 10.0 50 5.9 SSE 6 7 3 4 1014.3 - 0.0
23/03:00am 21.3 19.9 9.5 47 6.4 ESE 7 13 4 7 1014.2 1012.3 0.0
23/02:30am 21.8 20.3 9.3 45 6.8 ESE 7 13 4 7 1014.3 - 0.0
23/02:00am 22.3 20.0 9.0 42 7.2 ESE 11 20 6 11 1014.1 - 0.0
23/01:30am 22.9 19.4 8.9 40 7.6 ESE 17 33 9 18 1014.2 - 0.0
23/01:00am 23.3 20.2 10.2 43 7.3 ESE 17 28 9 15 1014.3 - 0.0
23/12:30am 24.0 20.7 9.5 39 8.0 E 17 32 9 17 1013.8 - 0.0
23/12:00am 24.5 21.6 9.5 38 8.3 ESE 15 24 8 13 1013.7 1011.9 0.0
 
Date/Time
EST
Temp
°C
App
Temp
°C
Dew
Point
°C
Rel
Hum
%
Delta-T
°C
Wind Press
QNH
hPa
Press
MSL
hPa
Rain since
9am
mm
Dir  Spd
km/h
Gust
km/h
Spd
kts
Gust
kts
22/11:30pm 25.0 22.4 9.2 36 8.7 ESE 13 24 7 13 1013.6 - 0.0
22/11:00pm 25.8 22.3 8.7 34 9.4 ESE 17 28 9 15 1013.2 - 0.0
22/10:30pm 26.4 23.4 7.8 30 10.1 SE 13 19 7 10 1013.0 - 0.0
22/10:00pm 26.8 24.0 8.4 31 10.1 ESE 13 19 7 10 1012.6 - 0.0
22/09:30pm 27.5 24.9 9.5 32 10.1 ESE 13 20 7 11 1012.5 - 0.0
22/09:00pm 28.2 25.4 9.9 32 10.4 E 15 30 8 16 1012.3 1010.5 0.0
22/08:30pm 28.6 26.9 11.2 34 10.1 E 11 19 6 10 1011.9 - 0.0
22/08:00pm 29.2 26.7 10.9 32 10.6 E 15 22 8 12 1011.5 - 0.0
22/07:30pm 30.3 27.2 10.4 29 11.5 E 17 26 9 14 1011.0 - 0.0
22/07:00pm 32.1 29.3 8.6 23 13.3 SSE 13 22 7 12 1010.2 - 0.0
22/06:30pm 32.7 28.9 7.4 20 14.1 S 17 26 9 14 1009.6 - 0.0
22/06:00pm 33.5 30.0 7.4 20 14.6 S 15 22 8 12 1009.2 1007.4 0.0
22/05:30pm 34.0 30.3 7.8 20 14.8 S 17 28 9 15 1008.9 - 0.0
22/05:00pm 34.5 30.5 8.4 20 14.9 S 19 32 10 17 1008.7 - 0.0
22/04:30pm 33.6 29.9 9.6 23 13.9 SSE 19 32 10 17 1008.8 - 0.0
22/04:00pm 34.9 31.9 10.5 22 14.4 SSE 17 26 9 14 1009.0 - 0.0
22/03:30pm 33.4 29.6 9.8 23 13.7 S 20 32 11 17 1009.0 - 0.0
22/03:00pm 34.5 31.6 10.9 23 14.0 SSE 17 30 9 16 1009.1 1007.3 0.0
22/02:30pm 32.9 30.2 11.8 27 12.6 S 17 26 9 14 1009.3 - 0.0
22/02:00pm 32.5 30.5 12.6 29 12.0 SSE 15 32 8 17 1009.7 - 0.0
22/01:30pm 32.5 30.8 12.4 29 12.1 S 13 26 7 14 1009.9 - 0.0
22/01:00pm 32.3 29.9 12.5 30 11.9 SSE 17 32 9 17 1010.3 - 0.0
22/12:30pm 32.1 29.4 12.9 31 11.6 SE 19 26 10 14 1010.7 - 0.0
22/12:00pm 31.6 28.8 13.1 32 11.2 ESE 20 35 11 19 1011.0 1009.1 0.0
22/11:30am 30.9 28.2 13.0 33 10.8 SE 19 32 10 17 1011.5 - 0.0
22/11:00am 30.2 27.9 14.0 37 9.9 SSE 19 30 10 16 1011.7 - 0.0
22/10:30am 29.8 27.6 13.4 36 9.9 ESE 17 28 9 15 1012.0 - 0.0
22/10:00am 29.0 26.6 13.8 39 9.2 SE 19 32 10 17 1012.1 - 0.0
22/09:30am 28.3 26.9 14.6 43 8.4 SSE 15 28 8 15 1012.2 - 0.0
22/09:00am 27.2 25.2 15.0 47 7.5 SSE 19 28 10 15 1012.3 1010.5 0.0
22/08:30am 26.8 26.0 16.0 51 6.7 SSE 15 22 8 12 1012.3 - 0.0
22/08:00am 25.5 24.3 16.1 56 5.8 SE 17 28 9 15 1012.1 - 0.0
22/07:30am 24.8 23.9 16.8 61 5.0 SSE 17 26 9 14 1011.9 - 0.0
22/07:00am 24.2 24.5 17.0 64 4.5 SSE 11 17 6 9 1011.6 - 0.0
22/06:30am 22.7 23.8 16.7 69 3.7 SSW 6 9 3 5 1011.3 - 0.0
22/06:00am 22.7 23.8 16.6 68 3.8 S 6 7 3 4 1010.9 1009.0 0.0
22/05:30am 23.0 23.9 16.5 67 4.0 SE 7 11 4 6 1010.5 - 0.0
22/05:00am 23.1 23.9 16.3 65 4.2 SSE 7 9 4 5 1010.2 - 0.0
22/04:30am 23.5 24.3 16.4 64 4.4 SSE 7 11 4 6 1009.8 - 0.0
22/04:00am 23.7 24.6 16.6 64 4.4 ESE 7 11 4 6 1009.7 - 0.0
22/03:30am 24.1 24.2 16.4 62 4.8 ESE 11 15 6 8 1009.5 - 0.0
22/03:00am 24.6 24.4 15.8 58 5.4 SE 11 19 6 10 1009.6 1007.8 0.0
22/02:30am 25.0 25.5 16.5 59 5.3 ESE 9 13 5 7 1009.4 - 0.0
22/02:00am 25.5 26.1 16.7 58 5.5 ENE 9 13 5 7 1009.3 - 0.0
22/01:30am 26.0 26.6 17.7 60 5.3 ESE 11 19 6 10 1009.6 - 0.0
22/01:00am 26.4 27.0 18.5 62 5.1 E 13 20 7 11 1009.5 - 0.0
22/12:30am 26.7 28.1 19.5 64 4.7 E 11 24 6 13 1009.8 - 0.0
22/12:00am 27.1 29.0 19.0 61 5.3 E 7 13 4 7 1009.7 1007.9 0.0
 
Date/Time
EST
Temp
°C
App
Temp
°C
Dew
Point
°C
Rel
Hum
%
Delta-T
°C
Wind Press
QNH
hPa
Press
MSL
hPa
Rain since
9am
mm
Dir  Spd
km/h
Gust
km/h
Spd
kts
Gust
kts
21/11:30pm 27.5 29.2 18.5 58 5.8 ENE 7 11 4 6 1009.5 - 0.0
21/11:00pm 27.8 28.9 18.0 55 6.3 ENE 9 15 5 8 1009.4 - 0.0
21/10:30pm 28.2 28.5 17.8 53 6.7 ENE 13 22 7 12 1009.1 - 0.0
21/10:00pm 28.7 28.9 17.6 51 7.1 E 13 24 7 13 1009.1 - 0.0
21/09:30pm 29.4 28.6 17.0 47 7.9 E 17 30 9 16 1009.0 - 0.0
21/09:00pm 30.3 29.4 15.8 41 9.1 E 15 22 8 12 1008.7 1006.8 0.0
21/08:30pm 31.1 29.2 15.1 38 10.0 ESE 19 28 10 15 1008.4 - 0.0
21/08:00pm 32.0 29.9 14.8 35 10.7 E 19 32 10 17 1007.8 - 0.0
21/07:30pm 33.6 29.9 2.6 14 16.0 S 11 20 6 11 1007.1 - 0.0
21/07:00pm 34.1 30.6 1.0 12 16.7 SSW 9 15 5 8 1006.2 - 0.0
21/06:30pm 35.1 30.4 1.1 11 17.3 SSW 15 26 8 14 1005.7 - 0.0
21/06:00pm 36.0 31.4 1.7 11 17.8 SSW 15 24 8 13 1005.4 1003.5 0.0
21/05:30pm 36.9 33.2 4.3 13 17.7 SSW 13 24 7 13 1005.2 - 0.0
21/05:00pm 37.4 34.7 7.2 15 17.1 S 11 15 6 8 1005.1 - 0.0
21/04:30pm 37.5 34.0 7.4 16 17.1 S 15 28 8 15 1005.1 - 0.0
21/04:00pm 37.3 33.8 7.3 16 17.0 SSW 15 28 8 15 1005.1 - 0.0
21/03:30pm 37.4 33.1 5.1 13 17.8 SW 17 32 9 17 1005.3 - 0.0
21/03:00pm 37.1 32.4 6.2 15 17.3 SW 20 30 11 16 1005.5 1003.6 0.0
21/02:30pm 37.2 33.7 8.6 17 16.6 SW 17 24 9 13 1005.7 - 0.0
21/02:00pm 36.9 34.4 9.8 19 15.9 S 13 24 7 13 1006.3 - 0.0
21/01:30pm 37.0 35.2 11.0 21 15.6 SSW 11 20 6 11 1006.9 - 0.0
21/01:00pm 35.8 34.1 12.6 24 14.2 SW 13 22 7 12 1007.4 - 0.0
21/12:30pm 35.4 35.0 13.1 26 13.7 SSE 7 17 4 9 1007.9 - 0.0
21/12:00pm 35.5 35.1 14.2 28 13.3 E 9 15 5 8 1008.2 1006.3 0.0
21/11:30am 33.5 33.7 14.6 32 11.8 WNW 7 11 4 6 1008.7 - 0.0
21/11:00am 33.6 33.3 14.5 31 11.9 NNE 9 15 5 8 1009.2 - 0.0
21/10:30am 32.7 33.1 15.2 34 11.0 NNE 7 13 4 7 1009.6 - 0.0
21/10:00am 31.2 31.3 15.6 39 9.8 WSW 9 13 5 7 1009.9 - 0.0
21/09:30am 30.7 31.7 16.9 43 8.8 S 7 11 4 6 1009.9 - 0.0
21/09:00am 29.2 31.0 17.5 49 7.5 E 4 11 2 6 1009.8 1008.0 0.0
21/08:30am 28.6 29.7 17.1 49 7.3 NNE 7 13 4 7 1009.8 - 0.0
21/08:00am 27.4 28.5 17.9 56 6.1 N 9 15 5 8 1009.7 - 0.0
21/07:30am 26.4 27.3 17.6 58 5.6 NNW 9 15 5 8 1009.4 - 0.0
21/07:00am 25.6 27.0 17.7 61 5.0 N 7 11 4 6 1009.4 - 0.0
21/06:30am 24.2 25.7 17.7 67 4.1 N 6 7 3 4 1009.2 - 0.0
21/06:00am 23.6 25.0 17.4 68 3.9 N 6 9 3 5 1008.9 1007.0 0.0
21/05:30am 24.1 25.5 17.3 65 4.3 NNE 6 7 3 4 1008.6 - 0.0
21/05:00am 24.9 26.4 17.6 64 4.6 N 6 13 3 7 1008.2 - 0.0
21/04:30am 24.6 26.9 16.8 62 4.9 CALM 0 0 0 0 1008.0 - 0.0
21/04:00am 25.5 26.8 16.2 56 5.8 WSW 4 9 2 5 1007.9 - 0.0
21/03:30am 25.2 27.0 15.6 55 5.9 CALM 0 7 0 4 1007.7 - 0.0
21/03:00am 27.0 27.9 16.5 52 6.6 ENE 7 9 4 5 1007.6 1005.7 0.0
21/02:30am 27.5 28.3 16.3 50 7.0 E 7 13 4 7 1007.7 - 0.0
21/02:00am 26.7 26.6 12.2 40 8.5 S 4 6 2 3 1007.6 - 0.0
21/01:30am 28.6 29.3 16.0 46 7.9 E 7 13 4 7 1007.6 - 0.0
21/01:00am 28.1 28.1 11.2 35 9.8 SE 2 9 1 5 1007.7 - 0.0
21/12:30am 29.2 29.1 9.4 29 11.2 CALM 0 0 0 0 1007.6 - 0.0
21/12:00am 30.8 28.3 6.6 22 13.2 SSE 9 17 5 9 1007.9 1006.0 0.0
 
Date/Time
EST
Temp
°C
App
Temp
°C
Dew
Point
°C
Rel
Hum
%
Delta-T
°C
Wind Press
QNH
hPa
Press
MSL
hPa
Rain since
9am
mm
Dir  Spd
km/h
Gust
km/h
Spd
kts
Gust
kts
20/11:30pm 31.9 27.6 3.5 16 14.8 S 15 20 8 11 1007.9 - 0.0
20/11:00pm 31.8 28.8 4.0 17 14.6 S 9 17 5 9 1007.9 - 0.0
20/10:30pm 32.3 29.4 4.4 17 14.8 S 9 15 5 8 1007.7 - 0.0
20/10:00pm 33.2 29.6 3.1 15 15.7 SSW 11 19 6 10 1007.4 - 0.0
20/09:30pm 33.8 30.4 3.8 15 15.9 S 11 19 6 10 1007.1 - 0.0

Other formats

Comma delimited format used in spreadsheet applications
http://www.bom.gov.au/fwo/IDQ60801/IDQ60801.95529.axf

JavaScript Object Notation format (JSON) in row-major order
http://www.bom.gov.au/fwo/IDQ60801/IDQ60801.95529.json

Data quality

Most of these data are generated automatically and are frequently updated. Quality checks on data are not normally performed. It is possible for incorrect values to appear. Refer to information at About Latest Weather Observations and please check the disclaimer before using these data.